Hunter, Kentucky
Current Conditions -  °F | °C
As of 5:55 AM on Wednesday 22 Oct 2014 (Local Time) from KPBX Reporting Station
Overcast Overcast  
Wind Chill: 40°   Ceiling: 1200
Heat Index: 42°   Visibility: 10mi
Dew Point: 40°   Wind: 5mph
Humidity: 90%   Direction: 340°NNW
Pressure: 30.15"   Gusts: NA
Location:  37.5083°N, 82.7074°W
Report Text: KPBX 220955Z AUTO 34004KT 10SM OVC012 06/04 A3015 RMK AO2 T00580043
Loading
Personal Weather Stations






























Interactive Weather Map
Tropical Storm Tracking
New forecast layout! Learn more

10-Day Weather Forecast

Advertisements
Track Severe Weather on mobile